sensor_id;sensor_type;location;lat;lon;timestamp;temperature;humidity
17236;DHT22;8734;59.272;17.780;2023-02-28T00:01:26;-2.10;99.90
17236;DHT22;8734;59.272;17.780;2023-02-28T00:03:57;-2.20;99.90
17236;DHT22;8734;59.272;17.780;2023-02-28T00:06:26;-2.20;99.90
17236;DHT22;8734;59.272;17.780;2023-02-28T00:08:54;-2.20;99.90
17236;DHT22;8734;59.272;17.780;2023-02-28T00:11:23;-2.20;99.90
17236;DHT22;8734;59.272;17.780;2023-02-28T00:13:52;-2.20;99.90
17236;DHT22;8734;59.272;17.780;2023-02-28T00:16:21;-2.20;99.90
17236;DHT22;8734;59.272;17.780;2023-02-28T00:18:50;-2.10;99.90
17236;DHT22;8734;59.272;17.780;2023-02-28T00:21:20;-2.20;99.90
17236;DHT22;8734;59.272;17.780;2023-02-28T00:23:48;-2.20;99.90
17236;DHT22;8734;59.272;17.780;2023-02-28T00:26:16;-2.20;99.90
17236;DHT22;8734;59.272;17.780;2023-02-28T00:28:48;-2.20;99.90
17236;DHT22;8734;59.272;17.780;2023-02-28T00:31:16;-2.20;99.90
17236;DHT22;8734;59.272;17.780;2023-02-28T00:33:44;-2.20;99.90
17236;DHT22;8734;59.272;17.780;2023-02-28T00:36:13;-2.20;99.90
17236;DHT22;8734;59.272;17.780;2023-02-28T00:38:43;-2.20;99.90
17236;DHT22;8734;59.272;17.780;2023-02-28T00:41:11;-2.30;99.90
17236;DHT22;8734;59.272;17.780;2023-02-28T00:43:40;-2.30;99.90
17236;DHT22;8734;59.272;17.780;2023-02-28T00:46:08;-2.30;99.90
17236;DHT22;8734;59.272;17.780;2023-02-28T00:48:36;-2.30;99.90
17236;DHT22;8734;59.272;17.780;2023-02-28T00:51:05;-2.30;99.90
17236;DHT22;8734;59.272;17.780;2023-02-28T00:53:34;-2.30;99.90
17236;DHT22;8734;59.272;17.780;2023-02-28T00:56:04;-2.30;99.90
17236;DHT22;8734;59.272;17.780;2023-02-28T00:58:32;-2.30;99.90
17236;DHT22;8734;59.272;17.780;2023-02-28T01:01:00;-2.30;99.90
17236;DHT22;8734;59.272;17.780;2023-02-28T01:03:29;-2.30;99.90
17236;DHT22;8734;59.272;17.780;2023-02-28T01:05:58;-2.30;99.90
17236;DHT22;8734;59.272;17.780;2023-02-28T01:08:26;-2.30;99.90
17236;DHT22;8734;59.272;17.780;2023-02-28T01:10:54;-2.30;99.90
17236;DHT22;8734;59.272;17.780;2023-02-28T01:13:25;-2.30;99.90
17236;DHT22;8734;59.272;17.780;2023-02-28T01:15:55;-2.30;99.90
17236;DHT22;8734;59.272;17.780;2023-02-28T01:18:24;-2.30;99.90
17236;DHT22;8734;59.272;17.780;2023-02-28T01:20:53;-2.30;99.90
17236;DHT22;8734;59.272;17.780;2023-02-28T01:23:22;-2.30;99.90
17236;DHT22;8734;59.272;17.780;2023-02-28T01:25:51;-2.30;99.90
17236;DHT22;8734;59.272;17.780;2023-02-28T01:28:19;-2.30;99.90
17236;DHT22;8734;59.272;17.780;2023-02-28T01:30:50;-2.20;99.90
17236;DHT22;8734;59.272;17.780;2023-02-28T01:33:18;-2.20;99.90
17236;DHT22;8734;59.272;17.780;2023-02-28T01:35:48;-2.10;99.90
17236;DHT22;8734;59.272;17.780;2023-02-28T01:38:16;-2.00;99.90
17236;DHT22;8734;59.272;17.780;2023-02-28T01:40:50;-2.00;99.90
17236;DHT22;8734;59.272;17.780;2023-02-28T01:43:22;-2.10;99.90
17236;DHT22;8734;59.272;17.780;2023-02-28T01:45:54;-2.10;99.90
17236;DHT22;8734;59.272;17.780;2023-02-28T01:48:26;-2.10;99.90
17236;DHT22;8734;59.272;17.780;2023-02-28T01:50:58;-2.20;99.90
17236;DHT22;8734;59.272;17.780;2023-02-28T01:53:31;-2.20;99.90
17236;DHT22;8734;59.272;17.780;2023-02-28T01:56:01;-2.10;99.90
17236;DHT22;8734;59.272;17.780;2023-02-28T01:58:32;-2.20;99.90
17236;DHT22;8734;59.272;17.780;2023-02-28T02:01:01;-2.10;99.90
17236;DHT22;8734;59.272;17.780;2023-02-28T02:03:30;-2.20;99.90
17236;DHT22;8734;59.272;17.780;2023-02-28T02:05:59;-2.10;99.90
17236;DHT22;8734;59.272;17.780;2023-02-28T02:08:29;-1.90;99.90
17236;DHT22;8734;59.272;17.780;2023-02-28T02:10:59;-1.50;99.90
17236;DHT22;8734;59.272;17.780;2023-02-28T02:13:37;-1.20;99.90
17236;DHT22;8734;59.272;17.780;2023-02-28T02:16:22;-1.00;99.90
17236;DHT22;8734;59.272;17.780;2023-02-28T02:18:54;-0.80;99.90
17236;DHT22;8734;59.272;17.780;2023-02-28T02:21:51;-0.70;99.90
17236;DHT22;8734;59.272;17.780;2023-02-28T02:25:02;-0.70;99.90
17236;DHT22;8734;59.272;17.780;2023-02-28T02:27:59;-0.70;99.90
17236;DHT22;8734;59.272;17.780;2023-02-28T02:36:27;-0.50;99.90
17236;DHT22;8734;59.272;17.780;2023-02-28T02:39:02;-0.40;99.90
17236;DHT22;8734;59.272;17.780;2023-02-28T02:41:36;-0.40;99.90
17236;DHT22;8734;59.272;17.780;2023-02-28T02:44:12;-0.30;99.90
17236;DHT22;8734;59.272;17.780;2023-02-28T02:46:43;-0.20;99.90
17236;DHT22;8734;59.272;17.780;2023-02-28T02:49:19;-0.10;99.90
17236;DHT22;8734;59.272;17.780;2023-02-28T02:51:51;-0.10;99.90
17236;DHT22;8734;59.272;17.780;2023-02-28T02:54:23;-0.10;99.90
17236;DHT22;8734;59.272;17.780;2023-02-28T02:56:58;0.00;99.90
17236;DHT22;8734;59.272;17.780;2023-02-28T02:59:29;0.10;99.90
17236;DHT22;8734;59.272;17.780;2023-02-28T03:02:00;0.10;99.90
17236;DHT22;8734;59.272;17.780;2023-02-28T03:04:33;0.20;99.90
17236;DHT22;8734;59.272;17.780;2023-02-28T03:07:04;0.20;99.90
17236;DHT22;8734;59.272;17.780;2023-02-28T03:09:34;0.20;99.90
17236;DHT22;8734;59.272;17.780;2023-02-28T03:12:04;0.30;99.90
17236;DHT22;8734;59.272;17.780;2023-02-28T03:14:42;0.40;99.90
17236;DHT22;8734;59.272;17.780;2023-02-28T03:17:49;0.40;99.90
17236;DHT22;8734;59.272;17.780;2023-02-28T03:20:32;0.40;99.90
17236;DHT22;8734;59.272;17.780;2023-02-28T03:23:13;0.40;99.90
17236;DHT22;8734;59.272;17.780;2023-02-28T03:25:54;0.50;99.90
17236;DHT22;8734;59.272;17.780;2023-02-28T03:28:31;0.50;99.90
17236;DHT22;8734;59.272;17.780;2023-02-28T03:31:07;0.60;99.90
17236;DHT22;8734;59.272;17.780;2023-02-28T03:33:42;0.60;99.90
17236;DHT22;8734;59.272;17.780;2023-02-28T03:36:15;0.70;99.90
17236;DHT22;8734;59.272;17.780;2023-02-28T03:38:48;0.70;99.90
17236;DHT22;8734;59.272;17.780;2023-02-28T03:41:20;0.60;99.90
17236;DHT22;8734;59.272;17.780;2023-02-28T03:43:55;0.60;99.90
17236;DHT22;8734;59.272;17.780;2023-02-28T03:46:27;0.50;99.90
17236;DHT22;8734;59.272;17.780;2023-02-28T03:49:02;0.60;99.90
17236;DHT22;8734;59.272;17.780;2023-02-28T03:51:33;0.50;99.90
17236;DHT22;8734;59.272;17.780;2023-02-28T03:54:07;0.40;99.90
17236;DHT22;8734;59.272;17.780;2023-02-28T03:56:40;0.50;99.90
17236;DHT22;8734;59.272;17.780;2023-02-28T03:59:14;0.60;99.90
17236;DHT22;8734;59.272;17.780;2023-02-28T04:01:47;0.60;99.90
17236;DHT22;8734;59.272;17.780;2023-02-28T04:04:16;0.60;99.90
17236;DHT22;8734;59.272;17.780;2023-02-28T04:06:44;0.50;99.90
17236;DHT22;8734;59.272;17.780;2023-02-28T04:09:15;0.50;99.90
17236;DHT22;8734;59.272;17.780;2023-02-28T04:11:46;0.50;99.90
17236;DHT22;8734;59.272;17.780;2023-02-28T04:14:16;0.50;99.90
17236;DHT22;8734;59.272;17.780;2023-02-28T04:16:45;0.40;99.90
17236;DHT22;8734;59.272;17.780;2023-02-28T04:19:14;0.40;99.90
17236;DHT22;8734;59.272;17.780;2023-02-28T04:21:44;0.30;99.90
17236;DHT22;8734;59.272;17.780;2023-02-28T04:24:16;0.20;99.90
17236;DHT22;8734;59.272;17.780;2023-02-28T04:26:47;0.20;99.90
17236;DHT22;8734;59.272;17.780;2023-02-28T04:29:19;0.20;99.90
17236;DHT22;8734;59.272;17.780;2023-02-28T04:31:48;0.20;99.90
17236;DHT22;8734;59.272;17.780;2023-02-28T04:34:17;0.20;99.90
17236;DHT22;8734;59.272;17.780;2023-02-28T04:36:45;0.20;99.90
17236;DHT22;8734;59.272;17.780;2023-02-28T04:39:35;0.20;99.90
17236;DHT22;8734;59.272;17.780;2023-02-28T04:42:03;0.30;99.90
17236;DHT22;8734;59.272;17.780;2023-02-28T04:44:32;0.30;99.90
17236;DHT22;8734;59.272;17.780;2023-02-28T04:47:00;0.30;99.90
17236;DHT22;8734;59.272;17.780;2023-02-28T04:49:29;0.30;99.90
17236;DHT22;8734;59.272;17.780;2023-02-28T04:51:57;0.20;99.90
17236;DHT22;8734;59.272;17.780;2023-02-28T04:54:26;0.20;99.90
17236;DHT22;8734;59.272;17.780;2023-02-28T04:56:56;0.20;99.90
17236;DHT22;8734;59.272;17.780;2023-02-28T04:59:25;0.10;99.90
17236;DHT22;8734;59.272;17.780;2023-02-28T05:01:53;0.20;99.90
17236;DHT22;8734;59.272;17.780;2023-02-28T05:04:21;0.20;99.90
17236;DHT22;8734;59.272;17.780;2023-02-28T05:06:51;0.20;99.90
17236;DHT22;8734;59.272;17.780;2023-02-28T05:09:19;0.20;99.90
17236;DHT22;8734;59.272;17.780;2023-02-28T05:11:47;0.30;99.90
17236;DHT22;8734;59.272;17.780;2023-02-28T05:14:18;0.30;99.90
17236;DHT22;8734;59.272;17.780;2023-02-28T05:16:46;0.30;99.90
17236;DHT22;8734;59.272;17.780;2023-02-28T05:19:14;0.30;99.90
17236;DHT22;8734;59.272;17.780;2023-02-28T05:21:50;0.30;99.90
17236;DHT22;8734;59.272;17.780;2023-02-28T05:24:19;0.30;99.90
17236;DHT22;8734;59.272;17.780;2023-02-28T05:26:51;0.30;99.90
17236;DHT22;8734;59.272;17.780;2023-02-28T05:29:21;0.30;99.90
17236;DHT22;8734;59.272;17.780;2023-02-28T05:31:50;0.20;99.90
17236;DHT22;8734;59.272;17.780;2023-02-28T05:34:19;0.20;99.90
17236;DHT22;8734;59.272;17.780;2023-02-28T05:36:47;0.20;99.90
17236;DHT22;8734;59.272;17.780;2023-02-28T05:39:15;0.20;99.90
17236;DHT22;8734;59.272;17.780;2023-02-28T05:41:44;0.20;99.90
17236;DHT22;8734;59.272;17.780;2023-02-28T05:44:12;0.20;99.90
17236;DHT22;8734;59.272;17.780;2023-02-28T05:46:42;0.20;99.90
17236;DHT22;8734;59.272;17.780;2023-02-28T05:49:10;0.30;99.90
17236;DHT22;8734;59.272;17.780;2023-02-28T05:51:38;0.30;99.90
17236;DHT22;8734;59.272;17.780;2023-02-28T05:54:07;0.30;99.90
17236;DHT22;8734;59.272;17.780;2023-02-28T05:56:36;0.30;99.90
17236;DHT22;8734;59.272;17.780;2023-02-28T05:59:06;0.20;99.90
17236;DHT22;8734;59.272;17.780;2023-02-28T06:01:36;0.20;99.90
17236;DHT22;8734;59.272;17.780;2023-02-28T06:04:07;0.20;99.90
17236;DHT22;8734;59.272;17.780;2023-02-28T06:06:49;0.20;99.90
17236;DHT22;8734;59.272;17.780;2023-02-28T06:09:18;0.20;99.90
17236;DHT22;8734;59.272;17.780;2023-02-28T06:11:47;0.10;99.90
17236;DHT22;8734;59.272;17.780;2023-02-28T06:14:16;0.10;99.90
17236;DHT22;8734;59.272;17.780;2023-02-28T06:16:45;0.10;99.90
17236;DHT22;8734;59.272;17.780;2023-02-28T06:19:15;0.00;99.90
17236;DHT22;8734;59.272;17.780;2023-02-28T06:21:44;0.00;99.90
17236;DHT22;8734;59.272;17.780;2023-02-28T06:24:12;0.20;99.90
17236;DHT22;8734;59.272;17.780;2023-02-28T06:26:41;0.20;99.90
17236;DHT22;8734;59.272;17.780;2023-02-28T06:29:09;0.30;99.90
17236;DHT22;8734;59.272;17.780;2023-02-28T06:31:38;0.30;99.90
17236;DHT22;8734;59.272;17.780;2023-02-28T06:34:06;0.30;99.90
17236;DHT22;8734;59.272;17.780;2023-02-28T06:36:36;0.30;99.90
17236;DHT22;8734;59.272;17.780;2023-02-28T06:39:06;0.30;99.90
17236;DHT22;8734;59.272;17.780;2023-02-28T06:41:34;0.30;99.90
17236;DHT22;8734;59.272;17.780;2023-02-28T06:44:20;0.30;99.90
17236;DHT22;8734;59.272;17.780;2023-02-28T06:46:49;0.30;99.90
17236;DHT22;8734;59.272;17.780;2023-02-28T06:49:18;0.30;99.90
17236;DHT22;8734;59.272;17.780;2023-02-28T06:51:48;0.30;99.90
17236;DHT22;8734;59.272;17.780;2023-02-28T06:54:16;0.30;99.90
17236;DHT22;8734;59.272;17.780;2023-02-28T06:56:44;0.30;99.90
17236;DHT22;8734;59.272;17.780;2023-02-28T06:59:13;0.40;99.90
17236;DHT22;8734;59.272;17.780;2023-02-28T07:01:42;0.40;99.90
17236;DHT22;8734;59.272;17.780;2023-02-28T07:04:10;0.50;99.90
17236;DHT22;8734;59.272;17.780;2023-02-28T07:06:40;0.60;99.90
17236;DHT22;8734;59.272;17.780;2023-02-28T07:09:10;0.70;99.90
17236;DHT22;8734;59.272;17.780;2023-02-28T07:11:39;0.80;99.90
17236;DHT22;8734;59.272;17.780;2023-02-28T07:14:07;0.90;99.90
17236;DHT22;8734;59.272;17.780;2023-02-28T07:16:36;1.00;99.90
17236;DHT22;8734;59.272;17.780;2023-02-28T07:19:05;1.10;99.90
17236;DHT22;8734;59.272;17.780;2023-02-28T07:21:33;1.10;99.90
17236;DHT22;8734;59.272;17.780;2023-02-28T07:24:01;1.20;99.90
17236;DHT22;8734;59.272;17.780;2023-02-28T07:26:32;1.30;99.90
17236;DHT22;8734;59.272;17.780;2023-02-28T07:29:01;1.50;99.90
17236;DHT22;8734;59.272;17.780;2023-02-28T07:31:30;1.60;99.90
17236;DHT22;8734;59.272;17.780;2023-02-28T07:33:59;1.70;99.90
17236;DHT22;8734;59.272;17.780;2023-02-28T07:36:27;1.80;99.90
17236;DHT22;8734;59.272;17.780;2023-02-28T07:38:55;1.90;99.90
17236;DHT22;8734;59.272;17.780;2023-02-28T07:41:24;1.90;99.90
17236;DHT22;8734;59.272;17.780;2023-02-28T07:43:56;2.00;99.90
17236;DHT22;8734;59.272;17.780;2023-02-28T07:46:27;2.10;99.90
17236;DHT22;8734;59.272;17.780;2023-02-28T07:48:56;2.20;99.90
17236;DHT22;8734;59.272;17.780;2023-02-28T07:51:26;2.20;99.90
17236;DHT22;8734;59.272;17.780;2023-02-28T07:53:56;2.20;99.90
17236;DHT22;8734;59.272;17.780;2023-02-28T07:56:24;2.30;99.90
17236;DHT22;8734;59.272;17.780;2023-02-28T07:58:53;2.30;99.90
17236;DHT22;8734;59.272;17.780;2023-02-28T08:01:23;2.40;99.90
17236;DHT22;8734;59.272;17.780;2023-02-28T08:03:51;2.40;99.90
17236;DHT22;8734;59.272;17.780;2023-02-28T08:06:24;2.50;99.90
17236;DHT22;8734;59.272;17.780;2023-02-28T08:08:53;2.50;99.90
17236;DHT22;8734;59.272;17.780;2023-02-28T08:11:23;2.60;99.90
17236;DHT22;8734;59.272;17.780;2023-02-28T08:13:51;2.70;99.90
17236;DHT22;8734;59.272;17.780;2023-02-28T08:16:19;2.80;99.90
17236;DHT22;8734;59.272;17.780;2023-02-28T08:18:51;2.90;99.90
17236;DHT22;8734;59.272;17.780;2023-02-28T08:21:20;3.00;99.90
17236;DHT22;8734;59.272;17.780;2023-02-28T08:23:50;3.10;99.90
17236;DHT22;8734;59.272;17.780;2023-02-28T08:26:19;3.20;99.90
17236;DHT22;8734;59.272;17.780;2023-02-28T08:28:47;3.30;99.90
17236;DHT22;8734;59.272;17.780;2023-02-28T08:31:17;3.40;99.90
17236;DHT22;8734;59.272;17.780;2023-02-28T08:33:45;3.50;99.90
17236;DHT22;8734;59.272;17.780;2023-02-28T08:36:17;3.70;99.90
17236;DHT22;8734;59.272;17.780;2023-02-28T08:38:45;3.80;99.90
17236;DHT22;8734;59.272;17.780;2023-02-28T08:41:14;3.90;99.90
17236;DHT22;8734;59.272;17.780;2023-02-28T08:43:43;4.10;99.90
17236;DHT22;8734;59.272;17.780;2023-02-28T08:46:12;4.20;99.90
17236;DHT22;8734;59.272;17.780;2023-02-28T08:48:41;4.40;99.90
17236;DHT22;8734;59.272;17.780;2023-02-28T08:51:11;4.70;99.90
17236;DHT22;8734;59.272;17.780;2023-02-28T08:53:41;4.90;99.90
17236;DHT22;8734;59.272;17.780;2023-02-28T08:56:11;5.10;99.90
17236;DHT22;8734;59.272;17.780;2023-02-28T08:58:40;5.20;99.90
17236;DHT22;8734;59.272;17.780;2023-02-28T09:01:09;5.20;99.90
17236;DHT22;8734;59.272;17.780;2023-02-28T09:03:39;5.20;99.90
17236;DHT22;8734;59.272;17.780;2023-02-28T09:06:09;5.20;99.90
17236;DHT22;8734;59.272;17.780;2023-02-28T09:08:38;5.30;99.90
17236;DHT22;8734;59.272;17.780;2023-02-28T09:11:08;5.80;99.90
17236;DHT22;8734;59.272;17.780;2023-02-28T09:13:37;6.70;99.90
17236;DHT22;8734;59.272;17.780;2023-02-28T09:16:07;8.00;99.90
17236;DHT22;8734;59.272;17.780;2023-02-28T09:18:36;9.00;99.90
17236;DHT22;8734;59.272;17.780;2023-02-28T09:21:06;9.50;99.90
17236;DHT22;8734;59.272;17.780;2023-02-28T09:23:35;10.40;99.90
17236;DHT22;8734;59.272;17.780;2023-02-28T09:26:05;10.90;99.90
17236;DHT22;8734;59.272;17.780;2023-02-28T09:28:35;11.00;99.90
17236;DHT22;8734;59.272;17.780;2023-02-28T09:31:04;11.10;99.90
17236;DHT22;8734;59.272;17.780;2023-02-28T09:33:32;10.90;99.90
17236;DHT22;8734;59.272;17.780;2023-02-28T09:36:02;10.50;99.90
17236;DHT22;8734;59.272;17.780;2023-02-28T09:38:31;10.60;99.90
17236;DHT22;8734;59.272;17.780;2023-02-28T09:41:02;10.60;99.90
17236;DHT22;8734;59.272;17.780;2023-02-28T09:43:35;11.10;99.90
17236;DHT22;8734;59.272;17.780;2023-02-28T09:46:11;11.40;99.90
17236;DHT22;8734;59.272;17.780;2023-02-28T09:48:45;11.90;99.90
17236;DHT22;8734;59.272;17.780;2023-02-28T09:51:25;11.70;99.90
17236;DHT22;8734;59.272;17.780;2023-02-28T09:53:55;11.80;99.90
17236;DHT22;8734;59.272;17.780;2023-02-28T09:56:31;11.60;99.90
17236;DHT22;8734;59.272;17.780;2023-02-28T09:59:09;11.80;99.90
17236;DHT22;8734;59.272;17.780;2023-02-28T10:01:43;12.00;99.90
17236;DHT22;8734;59.272;17.780;2023-02-28T10:04:25;12.30;99.90
17236;DHT22;8734;59.272;17.780;2023-02-28T10:07:00;12.50;99.90
17236;DHT22;8734;59.272;17.780;2023-02-28T10:09:32;12.80;99.90
17236;DHT22;8734;59.272;17.780;2023-02-28T10:12:04;12.60;99.90
17236;DHT22;8734;59.272;17.780;2023-02-28T10:14:34;12.80;99.90
17236;DHT22;8734;59.272;17.780;2023-02-28T10:17:08;12.90;99.90
17236;DHT22;8734;59.272;17.780;2023-02-28T10:19:44;13.10;99.90
17236;DHT22;8734;59.272;17.780;2023-02-28T10:22:16;13.60;99.90
17236;DHT22;8734;59.272;17.780;2023-02-28T10:24:47;13.30;99.90
17236;DHT22;8734;59.272;17.780;2023-02-28T10:27:18;13.20;99.90
17236;DHT22;8734;59.272;17.780;2023-02-28T10:29:49;12.50;99.90
17236;DHT22;8734;59.272;17.780;2023-02-28T10:32:21;12.20;99.90
17236;DHT22;8734;59.272;17.780;2023-02-28T10:34:52;11.90;99.90
17236;DHT22;8734;59.272;17.780;2023-02-28T10:37:22;12.20;99.90
17236;DHT22;8734;59.272;17.780;2023-02-28T10:39:50;12.10;99.90
17236;DHT22;8734;59.272;17.780;2023-02-28T10:42:22;12.20;99.90
17236;DHT22;8734;59.272;17.780;2023-02-28T10:45:11;12.60;99.90
17236;DHT22;8734;59.272;17.780;2023-02-28T10:47:49;12.30;99.90
17236;DHT22;8734;59.272;17.780;2023-02-28T10:50:34;11.90;99.90
17236;DHT22;8734;59.272;17.780;2023-02-28T10:53:16;11.40;99.90
17236;DHT22;8734;59.272;17.780;2023-02-28T10:55:44;11.50;99.90
17236;DHT22;8734;59.272;17.780;2023-02-28T10:58:22;11.60;99.90
17236;DHT22;8734;59.272;17.780;2023-02-28T11:00:53;11.50;99.90
17236;DHT22;8734;59.272;17.780;2023-02-28T11:03:30;10.80;99.90
17236;DHT22;8734;59.272;17.780;2023-02-28T11:06:03;10.00;99.90
17236;DHT22;8734;59.272;17.780;2023-02-28T11:08:33;9.20;99.90
17236;DHT22;8734;59.272;17.780;2023-02-28T11:11:05;8.70;99.90
17236;DHT22;8734;59.272;17.780;2023-02-28T11:13:36;8.60;99.90
17236;DHT22;8734;59.272;17.780;2023-02-28T11:16:09;8.50;99.90
17236;DHT22;8734;59.272;17.780;2023-02-28T11:18:42;8.40;99.90
17236;DHT22;8734;59.272;17.780;2023-02-28T11:21:18;8.50;99.90
17236;DHT22;8734;59.272;17.780;2023-02-28T11:23:49;8.30;99.90
17236;DHT22;8734;59.272;17.780;2023-02-28T11:26:37;8.20;99.90
17236;DHT22;8734;59.272;17.780;2023-02-28T11:29:12;8.00;99.90
17236;DHT22;8734;59.272;17.780;2023-02-28T11:32:02;7.80;99.90
17236;DHT22;8734;59.272;17.780;2023-02-28T11:34:31;7.70;99.90
17236;DHT22;8734;59.272;17.780;2023-02-28T11:37:00;7.60;99.90
17236;DHT22;8734;59.272;17.780;2023-02-28T11:39:32;7.60;99.90
17236;DHT22;8734;59.272;17.780;2023-02-28T11:42:11;7.70;99.90
17236;DHT22;8734;59.272;17.780;2023-02-28T11:44:51;7.80;99.90
17236;DHT22;8734;59.272;17.780;2023-02-28T11:47:30;8.00;99.90
17236;DHT22;8734;59.272;17.780;2023-02-28T11:50:12;8.10;99.90
17236;DHT22;8734;59.272;17.780;2023-02-28T11:52:50;8.10;99.90
17236;DHT22;8734;59.272;17.780;2023-02-28T11:55:23;8.30;99.90
17236;DHT22;8734;59.272;17.780;2023-02-28T12:01:04;8.30;99.90
17236;DHT22;8734;59.272;17.780;2023-02-28T12:03:44;8.30;99.90
17236;DHT22;8734;59.272;17.780;2023-02-28T12:06:19;8.30;99.90
17236;DHT22;8734;59.272;17.780;2023-02-28T12:09:08;8.40;99.90
17236;DHT22;8734;59.272;17.780;2023-02-28T12:11:47;8.30;99.90
17236;DHT22;8734;59.272;17.780;2023-02-28T12:14:49;8.20;99.90
17236;DHT22;8734;59.272;17.780;2023-02-28T12:17:30;8.20;99.90
17236;DHT22;8734;59.272;17.780;2023-02-28T12:20:14;8.00;99.90
17236;DHT22;8734;59.272;17.780;2023-02-28T12:22:49;7.90;99.90
17236;DHT22;8734;59.272;17.780;2023-02-28T12:28:27;7.70;99.90
17236;DHT22;8734;59.272;17.780;2023-02-28T12:31:00;7.70;99.90
17236;DHT22;8734;59.272;17.780;2023-02-28T12:33:34;7.70;99.90
17236;DHT22;8734;59.272;17.780;2023-02-28T12:36:09;7.60;99.90
17236;DHT22;8734;59.272;17.780;2023-02-28T12:38:41;7.60;99.90
17236;DHT22;8734;59.272;17.780;2023-02-28T12:41:14;7.50;99.90
17236;DHT22;8734;59.272;17.780;2023-02-28T12:43:48;7.50;99.90
17236;DHT22;8734;59.272;17.780;2023-02-28T12:46:21;7.50;99.90
17236;DHT22;8734;59.272;17.780;2023-02-28T12:48:54;7.50;99.90
17236;DHT22;8734;59.272;17.780;2023-02-28T12:51:26;7.50;99.90
17236;DHT22;8734;59.272;17.780;2023-02-28T12:54:04;7.60;99.90
17236;DHT22;8734;59.272;17.780;2023-02-28T12:56:41;7.60;99.90
17236;DHT22;8734;59.272;17.780;2023-02-28T12:59:17;7.70;99.90
17236;DHT22;8734;59.272;17.780;2023-02-28T13:01:57;7.70;99.90
17236;DHT22;8734;59.272;17.780;2023-02-28T13:04:51;7.80;99.90
17236;DHT22;8734;59.272;17.780;2023-02-28T13:07:36;7.80;99.90
17236;DHT22;8734;59.272;17.780;2023-02-28T13:10:10;7.70;99.90
17236;DHT22;8734;59.272;17.780;2023-02-28T13:12:48;7.70;99.90
17236;DHT22;8734;59.272;17.780;2023-02-28T13:15:19;7.70;99.90
17236;DHT22;8734;59.272;17.780;2023-02-28T13:17:52;7.70;99.90
17236;DHT22;8734;59.272;17.780;2023-02-28T13:20:24;7.70;99.90
17236;DHT22;8734;59.272;17.780;2023-02-28T13:22:55;7.70;99.90
17236;DHT22;8734;59.272;17.780;2023-02-28T13:25:51;7.70;99.90
17236;DHT22;8734;59.272;17.780;2023-02-28T13:34:42;7.80;99.90
17236;DHT22;8734;59.272;17.780;2023-02-28T13:37:34;7.80;99.90
17236;DHT22;8734;59.272;17.780;2023-02-28T13:40:32;7.80;99.90
17236;DHT22;8734;59.272;17.780;2023-02-28T13:43:08;7.80;99.90
17236;DHT22;8734;59.272;17.780;2023-02-28T13:45:36;7.80;99.90
17236;DHT22;8734;59.272;17.780;2023-02-28T13:48:17;7.80;99.90
17236;DHT22;8734;59.272;17.780;2023-02-28T13:50:46;7.80;99.90
17236;DHT22;8734;59.272;17.780;2023-02-28T13:53:34;7.80;99.90
17236;DHT22;8734;59.272;17.780;2023-02-28T13:56:16;7.80;99.90
17236;DHT22;8734;59.272;17.780;2023-02-28T13:58:53;7.80;99.90
17236;DHT22;8734;59.272;17.780;2023-02-28T14:01:40;7.80;99.90
17236;DHT22;8734;59.272;17.780;2023-02-28T14:04:46;7.80;99.90
17236;DHT22;8734;59.272;17.780;2023-02-28T14:07:22;7.70;99.90
17236;DHT22;8734;59.272;17.780;2023-02-28T14:09:56;7.70;99.90
17236;DHT22;8734;59.272;17.780;2023-02-28T14:12:52;7.60;99.90
17236;DHT22;8734;59.272;17.780;2023-02-28T14:15:36;7.50;99.90
17236;DHT22;8734;59.272;17.780;2023-02-28T14:18:15;7.40;99.90
17236;DHT22;8734;59.272;17.780;2023-02-28T14:20:46;7.40;99.90
17236;DHT22;8734;59.272;17.780;2023-02-28T14:23:23;7.40;99.90
17236;DHT22;8734;59.272;17.780;2023-02-28T14:26:01;7.30;99.90
17236;DHT22;8734;59.272;17.780;2023-02-28T14:28:49;7.30;99.90
17236;DHT22;8734;59.272;17.780;2023-02-28T14:31:24;7.20;99.90
17236;DHT22;8734;59.272;17.780;2023-02-28T14:34:12;7.20;99.90
17236;DHT22;8734;59.272;17.780;2023-02-28T14:36:43;7.10;99.90
17236;DHT22;8734;59.272;17.780;2023-02-28T14:39:13;7.10;99.90
17236;DHT22;8734;59.272;17.780;2023-02-28T14:41:43;7.10;99.90
17236;DHT22;8734;59.272;17.780;2023-02-28T14:44:16;7.10;99.90
17236;DHT22;8734;59.272;17.780;2023-02-28T14:46:46;7.10;99.90
17236;DHT22;8734;59.272;17.780;2023-02-28T14:49:19;7.10;99.90
17236;DHT22;8734;59.272;17.780;2023-02-28T14:51:50;7.10;99.90
17236;DHT22;8734;59.272;17.780;2023-02-28T14:54:30;7.10;99.90
17236;DHT22;8734;59.272;17.780;2023-02-28T14:56:58;7.10;99.90
17236;DHT22;8734;59.272;17.780;2023-02-28T14:59:30;7.10;99.90
17236;DHT22;8734;59.272;17.780;2023-02-28T15:02:20;7.00;99.90
17236;DHT22;8734;59.272;17.780;2023-02-28T15:04:56;7.00;99.90
17236;DHT22;8734;59.272;17.780;2023-02-28T15:07:25;6.90;99.90
17236;DHT22;8734;59.272;17.780;2023-02-28T15:10:17;6.90;99.90
17236;DHT22;8734;59.272;17.780;2023-02-28T15:12:51;6.80;99.90
17236;DHT22;8734;59.272;17.780;2023-02-28T15:15:26;6.80;99.90
17236;DHT22;8734;59.272;17.780;2023-02-28T15:18:07;6.80;99.90
17236;DHT22;8734;59.272;17.780;2023-02-28T15:20:39;6.80;99.90
17236;DHT22;8734;59.272;17.780;2023-02-28T15:23:09;6.70;99.90
17236;DHT22;8734;59.272;17.780;2023-02-28T15:25:40;6.60;99.90
17236;DHT22;8734;59.272;17.780;2023-02-28T15:28:14;6.60;99.90
17236;DHT22;8734;59.272;17.780;2023-02-28T15:30:54;6.50;99.90
17236;DHT22;8734;59.272;17.780;2023-02-28T15:33:24;6.50;99.90
17236;DHT22;8734;59.272;17.780;2023-02-28T15:36:10;6.40;99.90
17236;DHT22;8734;59.272;17.780;2023-02-28T15:38:38;6.30;99.90
17236;DHT22;8734;59.272;17.780;2023-02-28T15:41:22;6.20;99.90
17236;DHT22;8734;59.272;17.780;2023-02-28T15:44:16;6.10;99.90
17236;DHT22;8734;59.272;17.780;2023-02-28T15:46:58;6.10;99.90
17236;DHT22;8734;59.272;17.780;2023-02-28T15:49:31;6.00;99.90
17236;DHT22;8734;59.272;17.780;2023-02-28T15:52:13;6.00;99.90
17236;DHT22;8734;59.272;17.780;2023-02-28T15:54:43;5.90;99.90
17236;DHT22;8734;59.272;17.780;2023-02-28T15:57:17;5.80;99.90
17236;DHT22;8734;59.272;17.780;2023-02-28T15:59:51;5.80;99.90
17236;DHT22;8734;59.272;17.780;2023-02-28T16:02:30;5.70;99.90
17236;DHT22;8734;59.272;17.780;2023-02-28T16:05:12;5.60;99.90
17236;DHT22;8734;59.272;17.780;2023-02-28T16:07:43;5.60;99.90
17236;DHT22;8734;59.272;17.780;2023-02-28T16:10:12;5.50;99.90
17236;DHT22;8734;59.272;17.780;2023-02-28T16:12:42;5.50;99.90
17236;DHT22;8734;59.272;17.780;2023-02-28T16:15:18;5.40;99.90
17236;DHT22;8734;59.272;17.780;2023-02-28T16:17:49;5.40;99.90
17236;DHT22;8734;59.272;17.780;2023-02-28T16:20:20;5.30;99.90
17236;DHT22;8734;59.272;17.780;2023-02-28T16:22:49;5.20;99.90
17236;DHT22;8734;59.272;17.780;2023-02-28T16:25:20;5.10;99.90
17236;DHT22;8734;59.272;17.780;2023-02-28T16:27:52;5.00;99.90
17236;DHT22;8734;59.272;17.780;2023-02-28T16:30:23;4.90;99.90
17236;DHT22;8734;59.272;17.780;2023-02-28T16:32:54;4.90;99.90
17236;DHT22;8734;59.272;17.780;2023-02-28T16:35:23;4.70;99.90
17236;DHT22;8734;59.272;17.780;2023-02-28T16:37:52;4.60;99.90